Time;durP1;ratioP1;P1;durP2;ratioP2;P2;SDS_P1;SDS_P2;PMS_P1;PMS_P2;Temp;Humidity;BMP_temperature;BMP_pressure;BME280_temperature;BME280_humidity;BME280_pressure;Samples;Min_cycle;Max_cycle;Signal;HPM_P1;HPM_P2
2022/12/04 00:01:40;;;;;;;50.13;37.73;;;3.60;99.90;;;;;;5103401;28;20258;-54
2022/12/04 00:04:06;;;;;;;54.27;37.57;;;3.60;99.90;;;;;;5103036;28;20184;-53
2022/12/04 00:06:34;;;;;;;49.13;35.90;;;3.60;99.90;;;;;;5103181;28;20199;-54
2022/12/04 00:09:00;;;;;;;53.85;38.03;;;3.60;99.90;;;;;;5103217;28;20208;-52
2022/12/04 00:11:28;;;;;;;50.67;37.50;;;3.60;99.90;;;;;;5103267;28;20229;-53
2022/12/04 00:13:54;;;;;;;50.45;36.20;;;3.60;99.90;;;;;;5103319;28;20206;-52
2022/12/04 00:16:24;;;;;;;47.90;36.60;;;3.60;99.90;;;;;;5101365;28;20224;-53
2022/12/04 00:18:51;;;;;;;50.92;37.58;;;3.60;99.90;;;;;;5103373;28;20168;-54
2022/12/04 00:21:18;;;;;;;50.30;37.50;;;3.70;99.90;;;;;;5102757;28;20198;-54
2022/12/04 00:23:44;;;;;;;58.30;36.72;;;3.70;99.90;;;;;;5103366;28;20179;-54
2022/12/04 00:26:15;;;;;;;48.22;36.85;;;3.70;99.90;;;;;;5102771;28;20180;-49
2022/12/04 00:28:41;;;;;;;51.83;38.08;;;3.70;99.90;;;;;;5103226;28;20200;-53
2022/12/04 00:31:09;;;;;;;52.50;35.80;;;3.80;99.90;;;;;;5102332;28;20245;-54
2022/12/04 00:33:35;;;;;;;55.47;38.25;;;3.70;99.90;;;;;;5103187;28;20512;-53
2022/12/04 00:36:05;;;;;;;57.25;37.53;;;3.60;99.90;;;;;;5103313;28;20176;-54
2022/12/04 00:38:31;;;;;;;52.38;36.53;;;3.60;99.90;;;;;;5103388;28;20200;-51
2022/12/04 00:40:57;;;;;;;50.07;37.90;;;3.60;99.90;;;;;;5102976;28;20199;-55
2022/12/04 00:43:23;;;;;;;49.83;36.73;;;3.70;99.90;;;;;;5103328;28;20245;-54
2022/12/04 00:45:49;;;;;;;48.80;35.83;;;3.60;99.90;;;;;;5102683;28;20498;-53
2022/12/04 00:48:15;;;;;;;47.90;36.35;;;3.70;99.90;;;;;;5103013;28;20203;-55
2022/12/04 00:50:40;;;;;;;49.87;37.37;;;3.60;99.90;;;;;;5102809;28;20190;-53
2022/12/04 00:53:06;;;;;;;49.60;37.70;;;3.50;99.90;;;;;;5102990;28;20630;-54
2022/12/04 00:55:32;;;;;;;54.63;37.23;;;3.60;99.90;;;;;;5102976;28;20194;-52
2022/12/04 00:57:57;;;;;;;53.03;37.37;;;3.50;99.90;;;;;;5102227;28;20288;-53
2022/12/04 01:00:23;;;;;;;48.80;37.00;;;3.50;99.90;;;;;;5101700;28;20191;-55
2022/12/04 01:02:48;;;;;;;48.80;37.10;;;3.50;99.90;;;;;;5102691;28;20221;-55
2022/12/04 01:05:14;;;;;;;47.63;37.60;;;3.60;99.90;;;;;;5101241;28;20919;-56
2022/12/04 01:07:40;;;;;;;45.97;34.97;;;3.60;99.90;;;;;;5101350;28;20219;-54
2022/12/04 01:10:11;;;;;;;49.20;36.03;;;3.60;99.90;;;;;;5101633;28;20587;-50
2022/12/04 01:12:36;;;;;;;48.05;36.35;;;3.60;99.90;;;;;;5101972;28;20179;-49
2022/12/04 01:15:02;;;;;;;51.67;36.30;;;3.60;99.90;;;;;;5101885;28;20183;-54
2022/12/04 01:17:28;;;;;;;52.67;35.63;;;3.60;99.90;;;;;;5101303;28;20223;-54
2022/12/04 01:19:53;;;;;;;52.73;36.47;;;3.70;99.90;;;;;;5101033;28;21017;-54
2022/12/04 01:22:19;;;;;;;51.27;37.23;;;3.70;99.90;;;;;;5101994;28;20187;-54
2022/12/04 01:24:44;;;;;;;49.47;36.13;;;3.70;99.90;;;;;;5101863;28;20184;-54
2022/12/04 01:27:10;;;;;;;52.33;35.23;;;3.60;99.90;;;;;;5102086;28;20286;-55
2022/12/04 01:29:36;;;;;;;51.83;36.03;;;3.60;99.90;;;;;;5100650;28;20216;-52
2022/12/04 01:32:02;;;;;;;49.73;34.57;;;3.70;99.90;;;;;;5101241;28;20950;-54
2022/12/04 01:34:28;;;;;;;49.35;37.25;;;3.70;99.90;;;;;;5101418;28;20413;-54
2022/12/04 01:36:53;;;;;;;45.47;35.87;;;3.70;99.90;;;;;;5101520;28;20585;-54
2022/12/04 01:39:19;;;;;;;51.60;36.00;;;3.80;99.90;;;;;;5101810;28;20236;-50
2022/12/04 01:41:45;;;;;;;49.40;36.20;;;3.80;99.90;;;;;;5101700;28;20260;-53
2022/12/04 01:44:20;;;;;;;47.30;35.67;;;3.80;99.90;;;;;;5101547;28;20192;-50
2022/12/04 01:46:57;;;;;;;46.08;34.95;;;3.80;99.90;;;;;;5101433;28;20521;-50
2022/12/04 01:49:30;;;;;;;50.15;38.13;;;3.80;99.90;;;;;;5101410;28;20290;-51
2022/12/04 01:52:00;;;;;;;47.03;35.13;;;3.80;99.90;;;;;;5101861;28;20198;-56
2022/12/04 01:54:31;;;;;;;50.15;36.33;;;3.80;99.90;;;;;;5102232;28;20192;-53
2022/12/04 01:57:18;;;;;;;47.63;36.40;;;3.80;99.90;;;;;;5100993;28;20180;-53
2022/12/04 01:59:56;;;;;;;50.65;35.70;;;3.80;99.90;;;;;;5100590;28;20175;-54
2022/12/04 02:02:28;;;;;;;49.35;36.10;;;3.80;99.90;;;;;;5099559;28;20196;-51
2022/12/04 02:04:55;;;;;;;53.85;36.90;;;3.80;99.90;;;;;;5100513;28;20172;-54
2022/12/04 02:07:21;;;;;;;47.78;36.80;;;3.80;99.90;;;;;;5100531;28;20340;-54
2022/12/04 02:09:52;;;;;;;53.40;38.05;;;3.70;99.90;;;;;;5099172;28;20291;-54
2022/12/04 02:12:20;;;;;;;56.40;38.38;;;3.70;99.90;;;;;;5100746;28;20172;-52
2022/12/04 02:15:15;;;;;;;52.40;37.35;;;3.80;99.90;;;;;;5100667;28;20722;-54
2022/12/04 02:17:56;;;;;;;48.50;37.17;;;3.80;99.90;;;;;;5100793;28;20223;-53
2022/12/04 02:20:44;;;;;;;56.53;37.97;;;3.80;99.90;;;;;;5099264;28;20184;-53
2022/12/04 02:23:19;;;;;;;50.17;37.47;;;3.90;99.90;;;;;;5101103;28;20621;-53
2022/12/04 02:26:09;;;;;;;52.17;40.00;;;3.90;99.90;;;;;;5101015;28;20179;-50
2022/12/04 02:29:01;;;;;;;54.53;37.97;;;3.80;99.90;;;;;;5099726;28;20207;-53
2022/12/04 02:31:32;;;;;;;56.10;38.38;;;3.80;99.90;;;;;;5098168;28;20192;-51
2022/12/04 02:34:13;;;;;;;53.55;38.03;;;3.70;99.90;;;;;;5100353;28;20188;-53
2022/12/04 02:37:01;;;;;;;59.50;40.92;;;3.70;99.90;;;;;;5100330;28;20171;-52
2022/12/04 02:39:47;;;;;;;53.90;40.40;;;3.80;99.90;;;;;;5101157;28;20191;-54
2022/12/04 02:42:25;;;;;;;59.08;41.13;;;3.80;99.90;;;;;;5100052;28;20266;-53
2022/12/04 02:45:01;;;;;;;63.08;42.28;;;3.80;99.90;;;;;;5099898;28;20196;-53
2022/12/04 02:47:28;;;;;;;53.40;38.30;;;3.70;99.90;;;;;;5100536;28;20180;-53
2022/12/04 02:50:11;;;;;;;57.95;39.42;;;3.70;99.90;;;;;;5100756;28;20223;-52
2022/12/04 02:52:53;;;;;;;61.95;42.80;;;3.70;99.90;;;;;;5100476;28;20973;-52
2022/12/04 02:55:29;;;;;;;64.78;42.45;;;3.80;99.90;;;;;;5101067;28;20248;-54
2022/12/04 02:57:59;;;;;;;53.25;41.17;;;3.80;99.90;;;;;;5098834;28;20211;-52
2022/12/04 03:00:27;;;;;;;57.85;39.97;;;3.70;99.90;;;;;;5100620;28;20176;-54
2022/12/04 03:03:01;;;;;;;58.22;40.88;;;3.80;99.90;;;;;;5099601;28;20178;-51
2022/12/04 03:05:40;;;;;;;64.15;41.90;;;3.80;99.90;;;;;;5100769;28;20680;-54
2022/12/04 03:08:12;;;;;;;61.95;40.50;;;3.80;99.90;;;;;;5099358;28;20271;-52
2022/12/04 03:10:45;;;;;;;59.33;40.80;;;3.80;99.90;;;;;;5100169;28;20187;-55
2022/12/04 03:13:25;;;;;;;57.22;39.28;;;3.80;99.90;;;;;;5100364;28;20192;-53
2022/12/04 03:16:29;;;;;;;49.80;38.13;;;3.80;99.90;;;;;;5099556;28;20183;-54
2022/12/04 03:19:00;;;;;;;54.75;38.90;;;3.90;99.90;;;;;;5099851;28;20215;-50
2022/12/04 03:21:31;;;;;;;58.25;39.58;;;3.90;99.90;;;;;;5099719;28;20768;-53
2022/12/04 03:24:09;;;;;;;54.83;39.42;;;3.90;99.90;;;;;;5100350;28;20183;-54
2022/12/04 03:26:46;;;;;;;54.28;40.38;;;3.90;99.90;;;;;;5099255;28;20246;-56
2022/12/04 03:29:22;;;;;;;54.97;40.10;;;3.90;99.90;;;;;;5099677;28;20205;-52
2022/12/04 03:31:58;;;;;;;50.67;39.88;;;3.90;99.90;;;;;;5099579;28;20643;-51
2022/12/04 03:34:58;;;;;;;52.92;40.53;;;3.90;99.90;;;;;;5103934;28;20180;-51
2022/12/04 03:37:42;;;;;;;54.22;38.58;;;3.90;99.90;;;;;;5060739;28;20240;-55
2022/12/04 03:40:20;;;;;;;53.38;39.42;;;3.90;99.90;;;;;;5104279;28;20890;-55
2022/12/04 03:43:13;;;;;;;55.10;39.75;;;3.90;99.90;;;;;;5103762;28;20551;-50
2022/12/04 03:45:50;;;;;;;53.33;39.58;;;3.90;99.90;;;;;;5103955;28;20172;-54
2022/12/04 03:48:24;;;;;;;54.03;40.67;;;4.00;99.90;;;;;;5103851;28;20291;-53
2022/12/04 03:51:12;;;;;;;56.03;39.75;;;4.00;99.90;;;;;;5103944;28;20187;-52
2022/12/04 03:53:49;;;;;;;56.90;40.30;;;4.00;99.90;;;;;;5091212;28;20196;-50
2022/12/04 03:56:17;;;;;;;56.33;40.30;;;3.90;99.90;;;;;;5103032;28;20283;-53
2022/12/04 03:58:47;;;;;;;53.05;40.40;;;3.90;99.90;;;;;;5102338;28;20695;-53
2022/12/04 04:01:16;;;;;;;53.20;39.90;;;3.90;99.90;;;;;;5103655;28;20191;-48
2022/12/04 04:03:47;;;;;;;51.80;39.60;;;3.90;99.90;;;;;;5103371;28;20838;-52
2022/12/04 04:06:20;;;;;;;53.67;39.47;;;4.00;99.90;;;;;;5103132;28;20402;-53
2022/12/04 04:08:50;;;;;;;50.97;37.08;;;4.00;99.90;;;;;;5103571;28;20549;-52
2022/12/04 04:11:40;;;;;;;55.08;38.85;;;4.00;99.90;;;;;;5103625;28;20191;-55
2022/12/04 04:25:43;;;;;;;51.42;38.60;;;4.10;99.90;;;;;;5103858;28;20183;-54
2022/12/04 04:28:31;;;;;;;50.92;38.20;;;4.10;99.90;;;;;;5101609;28;20223;-50
2022/12/04 04:31:22;;;;;;;50.88;40.55;;;4.10;99.90;;;;;;5102861;28;20184;-53
2022/12/04 04:34:18;;;;;;;52.63;38.45;;;4.10;99.90;;;;;;5102226;28;20191;-49
2022/12/04 04:37:13;;;;;;;48.20;38.83;;;4.00;99.90;;;;;;5102995;28;20176;-54
2022/12/04 04:39:55;;;;;;;54.33;38.70;;;4.00;99.90;;;;;;5103028;28;20217;-54
2022/12/04 04:42:23;;;;;;;57.47;41.47;;;4.00;99.90;;;;;;5103008;28;20667;-52
2022/12/04 04:45:18;;;;;;;51.88;41.60;;;3.90;99.90;;;;;;5102133;28;20188;-56
2022/12/04 04:47:51;;;;;;;55.17;40.08;;;4.00;99.90;;;;;;5102776;28;20245;-50
2022/12/04 04:50:18;;;;;;;48.75;38.95;;;4.00;99.90;;;;;;5102673;28;20646;-55
2022/12/04 04:52:48;;;;;;;52.25;40.33;;;4.00;99.90;;;;;;5102698;28;20180;-54
2022/12/04 04:55:16;;;;;;;54.00;39.70;;;4.00;99.90;;;;;;5102629;28;20237;-54
2022/12/04 04:57:42;;;;;;;52.95;40.13;;;4.00;99.90;;;;;;5101761;28;20203;-53
2022/12/04 05:00:13;;;;;;;49.20;40.47;;;4.00;99.90;;;;;;5102544;28;20183;-55
2022/12/04 05:02:39;;;;;;;54.20;40.58;;;4.00;99.90;;;;;;5102784;28;20820;-54
2022/12/04 05:05:05;;;;;;;51.20;40.70;;;4.00;99.90;;;;;;5100944;28;20244;-50
2022/12/04 05:07:31;;;;;;;50.10;39.50;;;4.00;99.90;;;;;;5102025;28;20288;-54
2022/12/04 05:09:57;;;;;;;53.57;40.07;;;4.10;99.90;;;;;;5102170;28;20220;-55
2022/12/04 05:12:22;;;;;;;51.80;41.07;;;4.10;99.90;;;;;;5117978;27;20188;-54
2022/12/04 05:14:48;;;;;;;49.57;38.27;;;4.10;99.90;;;;;;5102464;28;20638;-53
2022/12/04 05:17:14;;;;;;;57.07;42.30;;;4.10;99.90;;;;;;5101777;28;20226;-52
2022/12/04 05:19:52;;;;;;;49.43;39.50;;;4.20;99.90;;;;;;5101888;28;20240;-54
2022/12/04 05:22:21;;;;;;;53.00;40.67;;;4.20;99.90;;;;;;5102054;28;20509;-52
2022/12/04 05:24:47;;;;;;;55.33;40.15;;;4.20;99.90;;;;;;5100988;28;20218;-50
2022/12/04 05:27:12;;;;;;;57.40;41.10;;;4.20;99.90;;;;;;5101227;28;20812;-51
2022/12/04 05:29:38;;;;;;;50.93;40.03;;;4.30;99.90;;;;;;5101984;28;20950;-54
2022/12/04 05:32:04;;;;;;;52.33;39.70;;;4.30;99.90;;;;;;5100365;28;20183;-58
2022/12/04 05:34:30;;;;;;;53.13;41.47;;;4.30;99.90;;;;;;5101942;28;20180;-55
2022/12/04 05:36:55;;;;;;;54.13;39.87;;;4.30;99.90;;;;;;5102025;28;20187;-53
2022/12/04 05:39:21;;;;;;;51.63;40.93;;;4.20;99.90;;;;;;5101534;28;20183;-50
2022/12/04 05:41:46;;;;;;;54.97;41.23;;;4.30;99.90;;;;;;5100919;28;20657;-54
2022/12/04 05:44:12;;;;;;;53.73;40.57;;;4.20;99.90;;;;;;5100745;28;20237;-50
2022/12/04 05:46:38;;;;;;;53.67;40.90;;;4.20;99.90;;;;;;5101567;28;20203;-52
2022/12/04 05:49:04;;;;;;;56.70;41.80;;;4.20;99.90;;;;;;5101588;28;20453;-52
2022/12/04 05:51:29;;;;;;;58.73;42.80;;;4.20;99.90;;;;;;5101292;28;20184;-54
2022/12/04 05:53:55;;;;;;;55.93;42.27;;;4.30;99.90;;;;;;5101605;28;20195;-52
2022/12/04 05:56:21;;;;;;;55.73;40.80;;;4.30;99.90;;;;;;5100535;28;20172;-54
2022/12/04 05:58:46;;;;;;;55.20;41.97;;;4.30;99.90;;;;;;5101400;28;20184;-52
2022/12/04 06:01:17;;;;;;;54.30;42.63;;;4.30;99.90;;;;;;5100292;28;20472;-50
2022/12/04 06:03:43;;;;;;;51.60;41.33;;;4.20;99.90;;;;;;5101040;28;21199;-49
2022/12/04 06:06:18;;;;;;;58.00;41.67;;;4.20;99.90;;;;;;5101003;28;20259;-47
2022/12/04 06:08:44;;;;;;;55.17;42.45;;;4.20;99.90;;;;;;5101223;28;20466;-53
2022/12/04 06:11:16;;;;;;;51.07;41.00;;;4.30;99.90;;;;;;5101225;28;20188;-49
2022/12/04 06:13:43;;;;;;;55.00;42.08;;;4.30;99.90;;;;;;5100766;28;20661;-53
2022/12/04 06:16:14;;;;;;;54.13;42.35;;;4.30;99.90;;;;;;5100937;28;20271;-54
2022/12/04 06:18:41;;;;;;;50.15;40.35;;;4.30;99.90;;;;;;5101046;28;20184;-52
2022/12/04 06:21:07;;;;;;;54.42;42.10;;;4.30;99.90;;;;;;5101066;28;20191;-54
2022/12/04 06:23:33;;;;;;;53.50;42.25;;;4.30;99.90;;;;;;5100997;28;20180;-54
2022/12/04 06:26:07;;;;;;;54.87;42.20;;;4.30;99.90;;;;;;5100158;28;20179;-49
2022/12/04 06:28:33;;;;;;;59.08;42.53;;;4.30;99.90;;;;;;5101275;28;20215;-55
2022/12/04 06:31:10;;;;;;;58.45;42.60;;;4.40;99.90;;;;;;5100779;28;20176;-54
2022/12/04 06:33:37;;;;;;;56.42;41.92;;;4.40;99.90;;;;;;5100761;28;20175;-53
2022/12/04 06:36:05;;;;;;;61.10;43.63;;;4.40;99.90;;;;;;5101246;28;20195;-54
2022/12/04 06:38:31;;;;;;;54.38;44.03;;;4.40;99.90;;;;;;5101130;28;20634;-55
2022/12/04 06:40:57;;;;;;;52.92;42.25;;;4.40;99.90;;;;;;5100775;28;20184;-53
2022/12/04 06:43:23;;;;;;;55.30;42.90;;;4.50;99.90;;;;;;5100946;28;20248;-55
2022/12/04 06:45:48;;;;;;;55.15;43.15;;;4.50;99.90;;;;;;5100953;28;20722;-51
2022/12/04 06:48:14;;;;;;;52.60;42.47;;;4.50;99.90;;;;;;5100634;28;20192;-52
2022/12/04 06:50:40;;;;;;;56.93;43.47;;;4.50;99.90;;;;;;5100763;28;20258;-53
2022/12/04 06:53:06;;;;;;;59.30;42.70;;;4.50;99.90;;;;;;5099600;28;20417;-53
2022/12/04 06:55:31;;;;;;;54.47;43.20;;;4.60;99.90;;;;;;5099808;28;20172;-53
2022/12/04 06:57:57;;;;;;;54.13;42.27;;;4.60;99.90;;;;;;5098790;28;20786;-53
2022/12/04 07:00:22;;;;;;;51.60;42.80;;;4.60;99.90;;;;;;5100430;28;20175;-51
2022/12/04 07:02:48;;;;;;;55.80;42.63;;;4.60;99.90;;;;;;5100846;28;20271;-55
2022/12/04 07:05:14;;;;;;;55.70;44.30;;;4.60;99.90;;;;;;5100185;28;21073;-55
2022/12/04 07:07:39;;;;;;;57.93;45.33;;;4.60;99.90;;;;;;5102730;28;20168;-53
2022/12/04 07:10:05;;;;;;;56.53;43.57;;;4.60;99.90;;;;;;5103116;28;20199;-53
2022/12/04 07:12:31;;;;;;;56.38;43.05;;;4.70;99.90;;;;;;5104732;28;20180;-54
2022/12/04 07:14:57;;;;;;;55.20;43.37;;;4.70;99.90;;;;;;5104571;28;20176;-51
2022/12/04 07:17:22;;;;;;;61.57;46.03;;;4.70;99.90;;;;;;5104555;28;20220;-54
2022/12/04 07:19:48;;;;;;;55.87;42.60;;;4.70;99.90;;;;;;5104716;28;20230;-50
2022/12/04 07:22:13;;;;;;;55.77;43.80;;;4.80;99.90;;;;;;5103921;28;20211;-54
2022/12/04 07:24:39;;;;;;;49.40;42.40;;;4.80;99.90;;;;;;5102933;28;20188;-53
2022/12/04 07:27:04;;;;;;;55.30;43.63;;;4.80;99.90;;;;;;5103495;28;20203;-54
2022/12/04 07:29:31;;;;;;;58.67;44.00;;;4.80;99.90;;;;;;5103369;28;20209;-53
2022/12/04 07:31:56;;;;;;;57.70;44.90;;;4.90;99.90;;;;;;5101124;28;20298;-54
2022/12/04 07:34:22;;;;;;;55.30;43.90;;;4.90;99.90;;;;;;5104171;28;20313;-52
2022/12/04 07:36:48;;;;;;;52.33;44.10;;;5.00;99.90;;;;;;5104419;28;20187;-52
2022/12/04 07:39:13;;;;;;;54.87;43.20;;;5.00;99.90;;;;;;5103830;28;21110;-51
2022/12/04 07:41:39;;;;;;;57.93;43.50;;;5.00;99.90;;;;;;5103895;28;20232;-53
2022/12/04 07:44:04;;;;;;;59.83;43.57;;;4.90;99.90;;;;;;5104329;28;20187;-52
2022/12/04 07:46:30;;;;;;;58.77;44.43;;;4.90;99.90;;;;;;5103558;28;20718;-51
2022/12/04 07:48:57;;;;;;;59.17;46.10;;;5.00;99.90;;;;;;5103914;28;20213;-52
2022/12/04 07:51:26;;;;;;;65.22;49.80;;;5.00;99.90;;;;;;5103977;28;20179;-54
2022/12/04 07:53:52;;;;;;;61.95;46.05;;;5.10;99.90;;;;;;5103758;28;20180;-55
2022/12/04 07:56:18;;;;;;;56.15;45.70;;;5.10;99.90;;;;;;5102480;28;20640;-54
2022/12/04 07:58:44;;;;;;;52.33;41.07;;;5.20;99.90;;;;;;5102176;28;20233;-55
2022/12/04 08:01:12;;;;;;;40.55;35.78;;;5.30;99.90;;;;;;5102134;28;20541;-54
2022/12/04 08:03:39;;;;;;;38.80;33.58;;;5.30;99.90;;;;;;5103469;28;20183;-55
2022/12/04 08:06:05;;;;;;;38.53;34.30;;;5.50;99.90;;;;;;5103541;28;20212;-53
2022/12/04 08:08:31;;;;;;;39.13;34.95;;;5.70;99.90;;;;;;5103742;28;20232;-51
2022/12/04 08:10:57;;;;;;;40.35;33.45;;;5.70;99.90;;;;;;5103544;28;20187;-54
2022/12/04 08:13:23;;;;;;;38.78;34.53;;;5.90;99.90;;;;;;5103705;28;20180;-51
2022/12/04 08:15:49;;;;;;;39.50;35.17;;;6.00;99.90;;;;;;5103445;28;20674;-53
2022/12/04 08:18:14;;;;;;;39.53;34.23;;;6.10;99.90;;;;;;5102598;28;20464;-55
2022/12/04 08:20:40;;;;;;;40.43;35.17;;;6.20;99.90;;;;;;5102683;28;20192;-52
2022/12/04 08:23:05;;;;;;;40.23;35.53;;;6.30;99.90;;;;;;5103729;28;20558;-56
2022/12/04 08:25:31;;;;;;;39.13;34.13;;;6.30;99.90;;;;;;5102192;28;20214;-53
2022/12/04 08:27:56;;;;;;;40.10;35.80;;;6.30;99.90;;;;;;5103304;28;20186;-53
2022/12/04 08:30:22;;;;;;;41.57;37.07;;;6.40;99.90;;;;;;5103262;28;21029;-53
2022/12/04 08:32:48;;;;;;;36.73;32.80;;;6.40;99.90;;;;;;5103054;28;21235;-54
2022/12/04 08:35:13;;;;;;;38.07;33.97;;;6.40;99.90;;;;;;5103271;28;20175;-53
2022/12/04 08:37:39;;;;;;;39.63;35.33;;;6.40;99.90;;;;;;5103056;28;20181;-55
2022/12/04 08:40:05;;;;;;;37.03;33.13;;;6.50;99.90;;;;;;5103320;28;20252;-53
2022/12/04 08:42:31;;;;;;;37.50;32.37;;;6.60;99.90;;;;;;5103569;28;20477;-50
2022/12/04 08:44:56;;;;;;;36.70;32.70;;;6.70;99.90;;;;;;5102777;28;20520;-55
2022/12/04 08:47:22;;;;;;;36.90;33.07;;;6.80;99.90;;;;;;5102946;28;20203;-48
2022/12/04 08:49:48;;;;;;;35.07;30.47;;;6.80;99.90;;;;;;5102504;28;20203;-54
2022/12/04 08:52:13;;;;;;;37.33;33.43;;;6.90;99.90;;;;;;5103081;28;20178;-55
2022/12/04 08:54:39;;;;;;;36.70;32.17;;;6.90;99.90;;;;;;5101221;28;20236;-55
2022/12/04 08:57:05;;;;;;;36.03;32.23;;;6.90;99.90;;;;;;5101430;28;20188;-53
2022/12/04 08:59:30;;;;;;;36.67;32.77;;;7.00;99.90;;;;;;5101243;28;20300;-48
2022/12/04 09:01:56;;;;;;;34.07;30.40;;;7.00;99.90;;;;;;5102219;28;20194;-53
2022/12/04 09:04:21;;;;;;;34.63;31.13;;;7.00;99.90;;;;;;5102435;28;20175;-53
2022/12/04 09:06:47;;;;;;;33.93;30.43;;;7.00;99.90;;;;;;5101028;28;20250;-54
2022/12/04 09:09:13;;;;;;;35.33;31.60;;;7.10;99.90;;;;;;5102532;28;20202;-50
2022/12/04 09:11:38;;;;;;;33.57;30.17;;;7.10;99.90;;;;;;5101737;28;20179;-56
2022/12/04 09:14:04;;;;;;;35.30;31.80;;;7.20;99.90;;;;;;5100913;28;20191;-54
2022/12/04 09:16:30;;;;;;;35.30;31.73;;;7.20;99.90;;;;;;5102256;28;20226;-54
2022/12/04 09:18:56;;;;;;;34.67;30.97;;;7.20;99.90;;;;;;5102505;28;20409;-54
2022/12/04 09:21:23;;;;;;;33.50;30.00;;;7.30;99.90;;;;;;5101774;28;20190;-53
2022/12/04 09:23:49;;;;;;;33.60;30.30;;;7.20;99.90;;;;;;5101591;28;20425;-51
2022/12/04 09:26:27;;;;;;;34.73;31.17;;;7.30;99.90;;;;;;5100842;28;20473;-52
2022/12/04 09:28:54;;;;;;;33.37;29.80;;;7.40;99.90;;;;;;5101910;28;20469;-50
2022/12/04 09:31:21;;;;;;;33.77;30.30;;;7.40;99.90;;;;;;5101019;28;20471;-54
2022/12/04 09:33:46;;;;;;;34.43;30.83;;;7.40;99.90;;;;;;5100214;28;20839;-53
2022/12/04 09:36:15;;;;;;;34.20;30.70;;;7.40;99.90;;;;;;5100090;28;20509;-54
2022/12/04 09:38:43;;;;;;;33.10;29.90;;;7.40;99.90;;;;;;5101194;28;20187;-53
2022/12/04 09:41:30;;;;;;;34.40;30.87;;;7.40;99.90;;;;;;5101695;28;20986;-55
2022/12/04 09:44:20;;;;;;;34.47;30.80;;;7.50;99.90;;;;;;5101950;28;20947;-55
2022/12/04 09:47:19;;;;;;;34.37;30.90;;;7.50;99.90;;;;;;5101405;28;20420;-57
2022/12/04 09:49:54;;;;;;;34.00;30.57;;;7.50;99.90;;;;;;5074361;28;20477;-54
2022/12/04 09:52:40;;;;;;;34.57;30.97;;;7.50;99.90;;;;;;5101376;28;20513;-53
2022/12/04 09:55:11;;;;;;;36.50;32.60;;;7.60;99.90;;;;;;5101605;28;21209;-51
2022/12/04 09:57:40;;;;;;;37.33;33.63;;;7.50;99.90;;;;;;5100648;28;20809;-54
2022/12/04 10:00:10;;;;;;;36.77;32.97;;;7.50;99.90;;;;;;5101361;28;21137;-52
2022/12/04 10:02:41;;;;;;;36.10;32.20;;;7.50;99.90;;;;;;5099220;28;20428;-51
2022/12/04 10:05:22;;;;;;;35.93;32.30;;;7.50;99.90;;;;;;5101164;28;20968;-53
2022/12/04 10:07:55;;;;;;;35.53;31.73;;;7.50;99.90;;;;;;5100145;28;20441;-51
2022/12/04 10:10:43;;;;;;;37.37;32.70;;;7.60;99.90;;;;;;5100712;28;20956;-53
2022/12/04 10:13:16;;;;;;;35.93;32.00;;;7.60;99.90;;;;;;5099782;28;20516;-55
2022/12/04 10:16:23;;;;;;;34.87;31.17;;;7.50;99.90;;;;;;5101485;28;20423;-52
2022/12/04 10:19:14;;;;;;;34.80;31.17;;;7.60;99.90;;;;;;5089293;28;20888;-57
2022/12/04 10:22:17;;;;;;;37.63;33.23;;;7.60;99.90;;;;;;5101071;28;20871;-49
2022/12/04 10:24:45;;;;;;;37.07;33.37;;;7.70;99.90;;;;;;5100702;28;20508;-56
2022/12/04 10:27:32;;;;;;;35.40;31.60;;;7.70;99.90;;;;;;5101156;28;21323;-53
2022/12/04 10:30:06;;;;;;;35.73;31.93;;;7.60;99.90;;;;;;5101096;28;20519;-55
2022/12/04 10:32:33;;;;;;;35.73;32.00;;;7.70;99.90;;;;;;5100973;28;20418;-56
2022/12/04 10:35:21;;;;;;;35.97;32.37;;;7.70;99.90;;;;;;5100718;28;20503;-56
2022/12/04 10:37:53;;;;;;;34.50;30.90;;;7.60;99.90;;;;;;5099402;28;20414;-55
2022/12/04 10:40:43;;;;;;;36.70;31.90;;;7.60;99.90;;;;;;5100824;28;20417;-52
2022/12/04 10:43:11;;;;;;;36.00;32.30;;;7.60;99.90;;;;;;5098637;28;20510;-51
2022/12/04 10:45:37;;;;;;;36.83;32.93;;;7.60;99.90;;;;;;5100849;28;20424;-54
2022/12/04 10:48:06;;;;;;;36.03;32.13;;;7.60;99.90;;;;;;5100843;28;20460;-52
2022/12/04 10:50:32;;;;;;;35.37;31.67;;;7.70;99.90;;;;;;5101048;28;20228;-53
2022/12/04 10:52:58;;;;;;;36.10;31.97;;;7.70;99.90;;;;;;5100388;28;20954;-53
2022/12/04 10:55:33;;;;;;;36.63;32.73;;;7.70;99.90;;;;;;5100613;28;20455;-53
2022/12/04 10:57:59;;;;;;;37.40;33.40;;;7.80;99.90;;;;;;5100438;28;20175;-54
2022/12/04 11:00:33;;;;;;;36.07;32.57;;;7.80;99.90;;;;;;5100343;28;21042;-51
2022/12/04 11:03:01;;;;;;;34.83;31.13;;;7.80;99.90;;;;;;5100918;28;20188;-54
2022/12/04 11:05:27;;;;;;;36.17;32.37;;;7.80;99.90;;;;;;5099765;28;20418;-55
2022/12/04 11:07:54;;;;;;;37.30;33.30;;;7.80;99.90;;;;;;5099194;28;20896;-55
2022/12/04 11:10:42;;;;;;;35.60;31.97;;;7.80;99.90;;;;;;5099195;28;20207;-52
2022/12/04 11:13:14;;;;;;;37.03;32.90;;;7.80;99.90;;;;;;5096875;28;20464;-55
2022/12/04 11:15:45;;;;;;;35.60;30.60;;;7.80;99.90;;;;;;5098695;28;20422;-53
2022/12/04 11:18:44;;;;;;;37.20;33.20;;;8.00;99.90;;;;;;5100026;28;21015;-51
2022/12/04 11:21:18;;;;;;;37.90;33.90;;;8.00;99.90;;;;;;5099827;28;20445;-52
2022/12/04 11:23:47;;;;;;;36.97;33.17;;;8.00;99.90;;;;;;5098670;28;20441;-51
2022/12/04 11:26:14;;;;;;;37.07;33.23;;;8.00;99.90;;;;;;5094948;28;20430;-54
2022/12/04 11:28:45;;;;;;;36.07;32.23;;;8.10;99.90;;;;;;5097311;28;20469;-48
2022/12/04 11:31:17;;;;;;;36.50;32.60;;;8.10;99.90;;;;;;5098308;28;20459;-54
2022/12/04 11:33:57;;;;;;;37.77;33.60;;;8.10;99.90;;;;;;5080346;28;20418;-52
2022/12/04 11:36:25;;;;;;;37.40;33.33;;;8.10;99.90;;;;;;5097957;28;20409;-51
2022/12/04 11:39:02;;;;;;;38.23;34.07;;;8.10;99.90;;;;;;5096335;28;20489;-53
2022/12/04 11:41:30;;;;;;;37.93;33.83;;;8.10;99.90;;;;;;5097479;28;20437;-54
2022/12/04 11:43:56;;;;;;;40.00;35.67;;;8.10;99.90;;;;;;5096459;28;20502;-56
2022/12/04 11:46:25;;;;;;;40.77;36.00;;;8.00;99.90;;;;;;5097483;28;20446;-51
2022/12/04 11:48:51;;;;;;;36.50;32.50;;;8.00;99.90;;;;;;5098326;28;20464;-55
2022/12/04 11:51:38;;;;;;;37.57;33.60;;;8.00;99.90;;;;;;5098267;28;20557;-54
2022/12/04 11:54:21;;;;;;;38.23;34.30;;;8.10;99.90;;;;;;5099940;28;20440;-57
2022/12/04 11:57:12;;;;;;;39.73;34.53;;;8.10;99.90;;;;;;5102379;28;21357;-52
2022/12/04 11:59:46;;;;;;;38.83;34.80;;;8.10;99.90;;;;;;5099388;28;20453;-53
2022/12/04 12:02:12;;;;;;;38.07;33.30;;;8.10;99.90;;;;;;5101574;28;20805;-54
2022/12/04 12:04:46;;;;;;;39.67;33.70;;;8.10;99.90;;;;;;5099209;28;20435;-50
2022/12/04 12:07:29;;;;;;;36.60;32.70;;;8.00;99.90;;;;;;5101276;28;20187;-50
2022/12/04 12:10:09;;;;;;;37.40;33.00;;;8.10;99.90;;;;;;5100244;28;20517;-53
2022/12/04 12:13:13;;;;;;;37.73;33.70;;;8.20;99.90;;;;;;5100213;28;20425;-55
2022/12/04 12:15:55;;;;;;;37.80;32.67;;;8.20;99.90;;;;;;5099580;28;20507;-55
2022/12/04 12:18:57;;;;;;;38.00;33.43;;;8.30;99.90;;;;;;5100785;28;20473;-56
2022/12/04 12:21:48;;;;;;;36.87;32.40;;;8.30;99.90;;;;;;5101073;28;20447;-53
2022/12/04 12:24:25;;;;;;;35.40;31.77;;;8.30;99.90;;;;;;5059414;28;20498;-55
2022/12/04 12:26:57;;;;;;;35.57;31.80;;;8.20;99.90;;;;;;5101667;28;20433;-57
2022/12/04 12:29:51;;;;;;;34.77;31.17;;;8.20;99.90;;;;;;5102858;28;20982;-50
2022/12/04 12:32:26;;;;;;;37.73;33.47;;;8.20;99.90;;;;;;5101405;28;20449;-54
2022/12/04 12:34:52;;;;;;;34.47;30.80;;;8.20;99.90;;;;;;5096578;28;20425;-56
2022/12/04 12:37:38;;;;;;;35.83;31.97;;;8.20;99.90;;;;;;5099543;28;20561;-56
2022/12/04 12:40:27;;;;;;;34.90;31.23;;;8.30;99.90;;;;;;5100575;28;20217;-53
2022/12/04 12:43:00;;;;;;;32.20;28.80;;;8.10;99.90;;;;;;5100829;28;20983;-55
2022/12/04 12:45:39;;;;;;;35.50;31.80;;;8.20;99.90;;;;;;5098850;28;21205;-55
2022/12/04 12:48:33;;;;;;;33.93;30.30;;;8.20;99.90;;;;;;5100633;28;20460;-55
2022/12/04 12:51:10;;;;;;;35.23;31.63;;;8.10;99.90;;;;;;5100817;28;20416;-54
2022/12/04 12:53:40;;;;;;;35.77;32.00;;;8.10;99.90;;;;;;5099974;28;20481;-50
2022/12/04 12:56:07;;;;;;;35.73;32.00;;;8.10;99.90;;;;;;5099460;28;20844;-55
2022/12/04 12:58:47;;;;;;;35.60;32.00;;;8.20;99.90;;;;;;5097424;28;20940;-55
2022/12/04 13:01:19;;;;;;;34.00;30.60;;;8.20;99.90;;;;;;5098933;28;20432;-53
2022/12/04 13:03:54;;;;;;;32.97;29.40;;;8.20;99.90;;;;;;5099269;28;20517;-51
2022/12/04 13:06:38;;;;;;;33.57;30.10;;;8.20;99.90;;;;;;5099318;28;20467;-56
2022/12/04 13:09:07;;;;;;;33.77;30.30;;;8.10;99.90;;;;;;5100455;28;20453;-56
2022/12/04 13:11:33;;;;;;;34.30;30.77;;;8.20;99.90;;;;;;5100718;28;20410;-51